MFD weather

Mansfield Lahm Regional Airport
Mansfield, Ohio, United States

Public forecast

Using degrees Fahrenheit for public forecast. Weather courtesy of forecast.io.

Current aviation weather report (METAR) for Mansfield Lahm Regional Airport

Retrieved 2019/10/14 10:52 UTC (50 minutes ago):

KMFD 141052Z 22004KT 10SM CLR 06/04 A2999 RMK AO2 SLP159 T00610039

Aviation forecast (TAF) for Mansfield Lahm Regional Airport

Retrieved 2019/10/14 06:22 UTC (5 hours ago):

TAF KMFD 140520Z 1406/1506 22008KT P6SM SCT250 FM140700 26006KT P6SM SCT120 FM141600 27007KT P6SM SCT050 FM142000 26009KT P6SM FEW250